Time;durP1;ratioP1;P1;durP2;ratioP2;P2;SDS_P1;SDS_P2;PMS_P1;PMS_P2;Temp;Humidity;BMP_temperature;BMP_pressure;BME280_temperature;BME280_humidity;BME280_pressure;Samples;Min_cycle;Max_cycle;Signal;HPM_P1;HPM_P2
2020/12/23 00:00:30;;;;;;;1.45;1.35;;;;;;;;;;5090564;28;20035;-68
2020/12/23 00:02:56;;;;;;;1.52;1.42;;;;;;;;;;5090433;28;20023;-68
2020/12/23 00:05:22;;;;;;;1.75;1.65;;;;;;;;;;5089004;28;20463;-69
2020/12/23 00:07:48;;;;;;;1.27;1.10;;;;;;;;;;5090498;28;20282;-68
2020/12/23 00:10:14;;;;;;;2.30;1.60;;;;;;;;;;5090550;28;20065;-68
2020/12/23 00:12:40;;;;;;;1.58;1.30;;;;;;;;;;5089933;28;20066;-68
2020/12/23 00:15:07;;;;;;;2.55;1.77;;;;;;;;;;5090555;28;20364;-68
2020/12/23 00:17:33;;;;;;;2.50;1.75;;;;;;;;;;5099749;28;20059;-69
2020/12/23 00:19:59;;;;;;;2.17;1.17;;;;;;;;;;5110901;28;20012;-69
2020/12/23 00:22:25;;;;;;;1.75;1.02;;;;;;;;;;5110097;28;20115;-69
2020/12/23 00:24:51;;;;;;;2.53;2.03;;;;;;;;;;5110565;28;20028;-69
2020/12/23 00:27:22;;;;;;;1.67;1.45;;;;;;;;;;5109898;28;20020;-69
2020/12/23 00:29:49;;;;;;;2.05;1.67;;;;;;;;;;5110632;28;20075;-68
2020/12/23 00:32:19;;;;;;;2.90;1.98;;;;;;;;;;5109762;28;20041;-68
2020/12/23 00:34:45;;;;;;;1.52;1.38;;;;;;;;;;5109080;28;20046;-68
2020/12/23 00:37:11;;;;;;;1.30;1.00;;;;;;;;;;5110066;28;20055;-68
2020/12/23 00:39:38;;;;;;;1.73;1.40;;;;;;;;;;5109855;28;20118;-68
2020/12/23 00:42:04;;;;;;;1.10;1.00;;;;;;;;;;5108579;28;20027;-68
2020/12/23 00:44:30;;;;;;;2.30;2.10;;;;;;;;;;5109131;28;20107;-68
2020/12/23 00:46:56;;;;;;;1.70;1.30;;;;;;;;;;5109304;28;20031;-68
2020/12/23 00:49:22;;;;;;;1.02;1.00;;;;;;;;;;5089304;28;20028;-68
2020/12/23 00:51:51;;;;;;;1.33;1.00;;;;;;;;;;5089513;28;20024;-68
2020/12/23 00:54:17;;;;;;;1.13;1.02;;;;;;;;;;5088746;28;20099;-68
2020/12/23 00:56:43;;;;;;;1.60;1.25;;;;;;;;;;5089419;28;20058;-69
2020/12/23 00:59:09;;;;;;;1.52;0.90;;;;;;;;;;5089671;28;20439;-68
2020/12/23 01:01:35;;;;;;;3.28;1.73;;;;;;;;;;5088694;28;20028;-68
2020/12/23 01:04:02;;;;;;;1.50;1.40;;;;;;;;;;5089170;28;20039;-68
2020/12/23 01:06:28;;;;;;;1.48;1.25;;;;;;;;;;5087762;28;20021;-68
2020/12/23 01:08:54;;;;;;;1.67;1.40;;;;;;;;;;5089051;28;20032;-69
2020/12/23 01:11:20;;;;;;;2.35;1.50;;;;;;;;;;5088441;28;20507;-68
2020/12/23 01:13:46;;;;;;;1.20;1.10;;;;;;;;;;5088656;28;20020;-68
2020/12/23 01:16:12;;;;;;;1.63;1.30;;;;;;;;;;5089012;28;20519;-68
2020/12/23 01:18:38;;;;;;;1.60;1.50;;;;;;;;;;5089295;28;20798;-69
2020/12/23 01:21:04;;;;;;;1.73;1.17;;;;;;;;;;5088980;28;20162;-68
2020/12/23 01:23:30;;;;;;;1.50;1.40;;;;;;;;;;5087935;28;20216;-68
2020/12/23 01:25:56;;;;;;;1.23;1.13;;;;;;;;;;5088807;28;20028;-68
2020/12/23 01:28:23;;;;;;;1.25;1.10;;;;;;;;;;5088272;28;20055;-68
2020/12/23 01:30:49;;;;;;;1.10;1.00;;;;;;;;;;5089143;28;20016;-68
2020/12/23 01:33:15;;;;;;;1.42;0.98;;;;;;;;;;5087879;28;20024;-68
2020/12/23 01:35:41;;;;;;;1.85;1.17;;;;;;;;;;5087458;28;20100;-69
2020/12/23 01:38:07;;;;;;;2.53;1.95;;;;;;;;;;5105184;28;20036;-68
2020/12/23 01:40:33;;;;;;;1.08;0.90;;;;;;;;;;5108764;28;20680;-68
2020/12/23 01:43:00;;;;;;;1.15;1.05;;;;;;;;;;5108842;28;20020;-68
2020/12/23 01:45:26;;;;;;;1.40;1.30;;;;;;;;;;5108265;28;20031;-68
2020/12/23 01:47:54;;;;;;;1.05;0.95;;;;;;;;;;5108647;28;20047;-68
2020/12/23 01:50:21;;;;;;;1.20;1.10;;;;;;;;;;5108627;28;20042;-68
2020/12/23 01:52:47;;;;;;;1.67;1.42;;;;;;;;;;5108883;28;20019;-68
2020/12/23 01:55:13;;;;;;;1.98;1.83;;;;;;;;;;5108280;28;20047;-68
2020/12/23 01:57:40;;;;;;;1.58;1.00;;;;;;;;;;5108798;28;20500;-68
2020/12/23 02:00:06;;;;;;;1.50;1.00;;;;;;;;;;5108755;28;20485;-68
2020/12/23 02:02:33;;;;;;;2.78;1.02;;;;;;;;;;5107887;28;20523;-68
2020/12/23 02:05:03;;;;;;;1.40;1.23;;;;;;;;;;5107611;28;20781;-68
2020/12/23 02:07:30;;;;;;;1.13;0.85;;;;;;;;;;5107983;28;20613;-68
2020/12/23 02:09:57;;;;;;;1.48;1.00;;;;;;;;;;5109023;28;20035;-68
2020/12/23 02:12:23;;;;;;;1.25;1.15;;;;;;;;;;5107409;28;20035;-68
2020/12/23 02:14:50;;;;;;;1.52;0.90;;;;;;;;;;5108153;28;20036;-68
2020/12/23 02:17:16;;;;;;;1.88;0.93;;;;;;;;;;5099974;28;20024;-68
2020/12/23 02:19:52;;;;;;;1.35;1.10;;;;;;;;;;5088831;28;20493;-68
2020/12/23 02:22:19;;;;;;;0.55;0.55;;;;;;;;;;5086988;28;20383;-68
2020/12/23 02:24:46;;;;;;;1.33;1.23;;;;;;;;;;5088288;28;20161;-68
2020/12/23 02:27:12;;;;;;;0.80;0.80;;;;;;;;;;5087988;28;20122;-68
2020/12/23 02:29:41;;;;;;;0.65;0.65;;;;;;;;;;5087660;28;20047;-68
2020/12/23 02:32:07;;;;;;;0.95;0.95;;;;;;;;;;5087530;28;20162;-68
2020/12/23 02:34:33;;;;;;;1.08;1.02;;;;;;;;;;5086632;28;20490;-68
2020/12/23 02:36:59;;;;;;;1.63;1.10;;;;;;;;;;5087397;28;20113;-68
2020/12/23 02:39:25;;;;;;;0.98;0.75;;;;;;;;;;5087671;28;20024;-68
2020/12/23 02:41:55;;;;;;;0.80;0.80;;;;;;;;;;5087584;28;20513;-68
2020/12/23 02:44:21;;;;;;;1.05;0.90;;;;;;;;;;5086524;28;20109;-68
2020/12/23 02:46:51;;;;;;;1.23;0.95;;;;;;;;;;5087907;28;20035;-68
2020/12/23 02:49:17;;;;;;;1.27;1.13;;;;;;;;;;5108078;28;20462;-68
2020/12/23 02:51:43;;;;;;;0.70;0.70;;;;;;;;;;5108381;28;20038;-68
2020/12/23 02:54:09;;;;;;;1.13;0.80;;;;;;;;;;5107998;28;20161;-68
2020/12/23 02:56:35;;;;;;;0.90;0.85;;;;;;;;;;5107467;28;20073;-68
2020/12/23 02:59:01;;;;;;;0.95;0.77;;;;;;;;;;5108335;28;20024;-68
2020/12/23 03:01:27;;;;;;;1.00;1.00;;;;;;;;;;5107820;28;20066;-68
2020/12/23 03:03:53;;;;;;;1.20;0.82;;;;;;;;;;5107655;28;20478;-68
2020/12/23 03:06:19;;;;;;;1.40;0.85;;;;;;;;;;5108029;28;20473;-68
2020/12/23 03:08:45;;;;;;;0.80;0.80;;;;;;;;;;5111774;28;20404;-68
2020/12/23 03:11:11;;;;;;;1.08;0.90;;;;;;;;;;5112652;28;20297;-68
2020/12/23 03:13:37;;;;;;;2.88;1.15;;;;;;;;;;5111142;28;20081;-68
2020/12/23 03:16:04;;;;;;;1.10;0.95;;;;;;;;;;5111776;28;20114;-68
2020/12/23 03:18:31;;;;;;;0.63;0.63;;;;;;;;;;5110882;28;20027;-68
2020/12/23 03:20:57;;;;;;;1.00;0.70;;;;;;;;;;5111478;28;20040;-68
2020/12/23 03:23:23;;;;;;;0.50;0.50;;;;;;;;;;5110017;28;20112;-68
2020/12/23 03:25:49;;;;;;;3.28;1.02;;;;;;;;;;5110994;28;20028;-68
2020/12/23 03:28:15;;;;;;;1.02;0.55;;;;;;;;;;5110943;28;20072;-68
2020/12/23 03:30:41;;;;;;;0.80;0.70;;;;;;;;;;5110831;28;20028;-68
2020/12/23 03:33:07;;;;;;;0.40;0.40;;;;;;;;;;5110558;28;20032;-68
2020/12/23 03:35:33;;;;;;;1.58;0.50;;;;;;;;;;5109159;28;20437;-68
2020/12/23 03:37:59;;;;;;;1.58;1.15;;;;;;;;;;5095512;28;20066;-68
2020/12/23 03:40:25;;;;;;;0.52;0.50;;;;;;;;;;5090402;28;20394;-68
2020/12/23 03:42:51;;;;;;;0.90;0.60;;;;;;;;;;5090526;28;20089;-68
2020/12/23 03:45:17;;;;;;;0.63;0.63;;;;;;;;;;5090126;28;20028;-68
2020/12/23 03:47:43;;;;;;;0.50;0.50;;;;;;;;;;5090452;28;20536;-68
2020/12/23 03:50:10;;;;;;;0.80;0.70;;;;;;;;;;5091050;28;20402;-68
2020/12/23 03:52:36;;;;;;;0.45;0.40;;;;;;;;;;5089619;28;20031;-68
2020/12/23 03:55:02;;;;;;;0.98;0.50;;;;;;;;;;5090539;28;20020;-68
2020/12/23 03:57:28;;;;;;;0.40;0.40;;;;;;;;;;5090205;28;20078;-68
2020/12/23 03:59:54;;;;;;;0.73;0.52;;;;;;;;;;5091226;28;20023;-68
2020/12/23 04:02:20;;;;;;;0.95;0.75;;;;;;;;;;5088246;28;20020;-68
2020/12/23 04:04:46;;;;;;;0.88;0.57;;;;;;;;;;5089362;28;20063;-68
2020/12/23 04:07:12;;;;;;;0.40;0.40;;;;;;;;;;5090250;28;20426;-68
2020/12/23 04:09:38;;;;;;;1.23;0.43;;;;;;;;;;5090335;28;20039;-68
2020/12/23 04:12:04;;;;;;;0.32;0.32;;;;;;;;;;5090641;28;20113;-68
2020/12/23 04:14:30;;;;;;;1.10;0.55;;;;;;;;;;5089065;28;20034;-68
2020/12/23 04:16:56;;;;;;;0.65;0.40;;;;;;;;;;5095136;28;20023;-68
2020/12/23 04:19:22;;;;;;;1.60;0.93;;;;;;;;;;5110155;28;20101;-69
2020/12/23 04:21:48;;;;;;;0.95;0.60;;;;;;;;;;5110525;28;20504;-68
2020/12/23 04:24:14;;;;;;;0.68;0.68;;;;;;;;;;5109976;28;20552;-68
2020/12/23 04:26:40;;;;;;;1.52;0.75;;;;;;;;;;5109971;28;20031;-68
2020/12/23 04:29:06;;;;;;;0.60;0.45;;;;;;;;;;5110478;28;20079;-68
2020/12/23 04:31:32;;;;;;;1.00;0.70;;;;;;;;;;5110267;28;20682;-68
2020/12/23 04:33:58;;;;;;;0.80;0.52;;;;;;;;;;5109911;28;20023;-68
2020/12/23 04:36:24;;;;;;;0.20;0.20;;;;;;;;;;5108763;28;20024;-68
2020/12/23 04:38:50;;;;;;;0.45;0.45;;;;;;;;;;5110206;28;20023;-68
2020/12/23 04:41:17;;;;;;;0.70;0.32;;;;;;;;;;5109812;28;20035;-68
2020/12/23 04:43:43;;;;;;;0.68;0.68;;;;;;;;;;5109674;28;20432;-68
2020/12/23 04:46:10;;;;;;;0.40;0.40;;;;;;;;;;5110124;28;20102;-68
2020/12/23 04:48:38;;;;;;;0.35;0.22;;;;;;;;;;5095215;28;20040;-68
2020/12/23 04:51:04;;;;;;;0.57;0.40;;;;;;;;;;5088936;28;20073;-68
2020/12/23 04:53:31;;;;;;;0.40;0.40;;;;;;;;;;5087478;28;20457;-68
2020/12/23 04:55:57;;;;;;;0.75;0.38;;;;;;;;;;5089494;28;20026;-69
2020/12/23 04:58:27;;;;;;;0.45;0.40;;;;;;;;;;5089389;28;20075;-68
2020/12/23 05:00:53;;;;;;;0.20;0.20;;;;;;;;;;5089755;28;20051;-68
2020/12/23 05:03:19;;;;;;;0.25;0.25;;;;;;;;;;5088342;28;20032;-68
2020/12/23 05:05:45;;;;;;;0.50;0.50;;;;;;;;;;5088235;28;20016;-68
2020/12/23 05:08:11;;;;;;;0.47;0.20;;;;;;;;;;5071065;28;20591;-68
2020/12/23 05:10:37;;;;;;;0.30;0.30;;;;;;;;;;5089102;28;20062;-68
2020/12/23 05:13:05;;;;;;;0.55;0.30;;;;;;;;;;5089161;28;20038;-68
2020/12/23 05:15:31;;;;;;;0.55;0.40;;;;;;;;;;5088550;28;20493;-68
2020/12/23 05:17:57;;;;;;;0.22;0.22;;;;;;;;;;5089802;28;20446;-68
2020/12/23 05:20:23;;;;;;;1.38;0.38;;;;;;;;;;5088790;28;20051;-68
2020/12/23 05:22:49;;;;;;;0.60;0.30;;;;;;;;;;5088659;28;20044;-68
2020/12/23 05:25:17;;;;;;;0.38;0.30;;;;;;;;;;5087724;28;20493;-68
2020/12/23 05:27:43;;;;;;;0.20;0.20;;;;;;;;;;5088280;28;20071;-68
2020/12/23 05:30:10;;;;;;;0.47;0.20;;;;;;;;;;5088997;28;20035;-68
2020/12/23 05:32:37;;;;;;;0.10;0.10;;;;;;;;;;5087943;28;20513;-68
2020/12/23 05:35:04;;;;;;;0.40;0.25;;;;;;;;;;5087526;28;20039;-68
2020/12/23 05:37:30;;;;;;;0.65;0.30;;;;;;;;;;5099300;28;20041;-68
2020/12/23 05:39:56;;;;;;;0.10;0.10;;;;;;;;;;5109437;28;20028;-68
2020/12/23 05:42:23;;;;;;;0.52;0.22;;;;;;;;;;5108591;28;20059;-68
2020/12/23 05:44:58;;;;;;;0.50;0.50;;;;;;;;;;5108636;28;20164;-68
2020/12/23 05:47:25;;;;;;;1.55;0.30;;;;;;;;;;5108601;28;20031;-68
2020/12/23 05:49:52;;;;;;;0.20;0.20;;;;;;;;;;5109079;28;20030;-70
2020/12/23 05:52:21;;;;;;;0.30;0.30;;;;;;;;;;5108330;28;20042;-71
2020/12/23 05:54:49;;;;;;;0.30;0.30;;;;;;;;;;5109351;28;20043;-71
2020/12/23 05:57:15;;;;;;;0.38;0.20;;;;;;;;;;5108527;28;20024;-71
2020/12/23 05:59:41;;;;;;;0.80;0.65;;;;;;;;;;5108922;28;20031;-71
2020/12/23 06:02:08;;;;;;;0.17;0.17;;;;;;;;;;5109212;28;20165;-71
2020/12/23 06:04:35;;;;;;;0.10;0.10;;;;;;;;;;5107002;28;20146;-71
2020/12/23 06:07:05;;;;;;;0.20;0.20;;;;;;;;;;5108530;28;20062;-69
2020/12/23 06:09:35;;;;;;;0.63;0.20;;;;;;;;;;5108461;28;20027;-68
2020/12/23 06:12:10;;;;;;;0.38;0.32;;;;;;;;;;5108678;28;20653;-68
2020/12/23 06:14:38;;;;;;;1.25;0.80;;;;;;;;;;5107749;28;20168;-68
2020/12/23 06:17:07;;;;;;;0.28;0.17;;;;;;;;;;5102264;28;20090;-68
2020/12/23 06:19:36;;;;;;;0.15;0.15;;;;;;;;;;5087774;28;20524;-68
2020/12/23 06:22:02;;;;;;;0.20;0.20;;;;;;;;;;5088625;28;20505;-68
2020/12/23 06:24:28;;;;;;;0.20;0.17;;;;;;;;;;5087172;28;20031;-68
2020/12/23 06:26:56;;;;;;;0.30;0.30;;;;;;;;;;5088115;28;20031;-68
2020/12/23 06:29:23;;;;;;;0.47;0.10;;;;;;;;;;5087222;28;20055;-68
2020/12/23 06:31:53;;;;;;;0.50;0.38;;;;;;;;;;5087815;28;20120;-68
2020/12/23 06:34:23;;;;;;;0.32;0.32;;;;;;;;;;5086957;28;20020;-68
2020/12/23 06:36:50;;;;;;;0.20;0.20;;;;;;;;;;5087540;28;20039;-68
2020/12/23 06:39:19;;;;;;;0.30;0.20;;;;;;;;;;5087910;28;20035;-68
2020/12/23 06:41:46;;;;;;;0.20;0.20;;;;;;;;;;5092584;28;20028;-68
2020/12/23 06:44:12;;;;;;;0.10;0.10;;;;;;;;;;5091611;28;20427;-68
2020/12/23 06:46:57;;;;;;;0.20;0.20;;;;;;;;;;5091612;28;20089;-68
2020/12/23 06:49:34;;;;;;;0.20;0.13;;;;;;;;;;5071352;28;20036;-68
2020/12/23 06:52:00;;;;;;;0.10;0.10;;;;;;;;;;5071935;28;20031;-68
2020/12/23 06:54:44;;;;;;;0.20;0.20;;;;;;;;;;5070660;28;20437;-68
2020/12/23 06:57:10;;;;;;;0.40;0.20;;;;;;;;;;5071574;28;20398;-70
2020/12/23 06:59:48;;;;;;;0.10;0.10;;;;;;;;;;5070716;28;20463;-68
2020/12/23 07:02:14;;;;;;;0.40;0.13;;;;;;;;;;5077507;28;20056;-68
2020/12/23 07:04:48;;;;;;;0.10;0.10;;;;;;;;;;5080751;28;20315;-70
2020/12/23 07:07:27;;;;;;;0.32;0.30;;;;;;;;;;5080085;28;20455;-70
2020/12/23 07:09:53;;;;;;;0.28;0.28;;;;;;;;;;5075988;28;20391;-72
2020/12/23 07:12:22;;;;;;;1.17;0.75;;;;;;;;;;5083386;28;20020;-68
2020/12/23 07:15:11;;;;;;;0.43;0.22;;;;;;;;;;5089634;28;20521;-68
2020/12/23 07:17:38;;;;;;;1.35;0.15;;;;;;;;;;5090453;28;20051;-68
2020/12/23 07:20:05;;;;;;;1.10;0.40;;;;;;;;;;5088243;28;20417;-68
2020/12/23 07:22:32;;;;;;;0.15;0.15;;;;;;;;;;5090099;28;20118;-68
2020/12/23 07:24:59;;;;;;;0.35;0.25;;;;;;;;;;5089104;28;20028;-68
2020/12/23 07:27:25;;;;;;;0.38;0.22;;;;;;;;;;5093792;28;20134;-68
2020/12/23 07:29:56;;;;;;;0.43;0.43;;;;;;;;;;5103493;28;20024;-70
2020/12/23 07:32:25;;;;;;;0.90;0.50;;;;;;;;;;5088390;28;20024;-70
2020/12/23 07:34:52;;;;;;;0.22;0.22;;;;;;;;;;5082542;28;20097;-70
2020/12/23 07:37:18;;;;;;;2.15;0.38;;;;;;;;;;5086116;28;20024;-68
2020/12/23 07:39:48;;;;;;;0.95;0.55;;;;;;;;;;5077066;28;20111;-69
2020/12/23 07:42:18;;;;;;;0.60;0.45;;;;;;;;;;5083155;28;20340;-68
2020/12/23 07:44:51;;;;;;;2.05;0.50;;;;;;;;;;5085715;28;20123;-68
2020/12/23 07:47:24;;;;;;;0.52;0.50;;;;;;;;;;5083561;28;20048;-68
2020/12/23 07:50:00;;;;;;;0.45;0.30;;;;;;;;;;5086978;28;20111;-68
2020/12/23 07:52:26;;;;;;;0.20;0.20;;;;;;;;;;5087222;28;20496;-68
2020/12/23 07:54:52;;;;;;;0.57;0.50;;;;;;;;;;5087896;28;20032;-68
2020/12/23 07:57:28;;;;;;;2.65;0.50;;;;;;;;;;5088152;28;20027;-69
2020/12/23 08:00:00;;;;;;;2.70;0.70;;;;;;;;;;5084352;28;20020;-71
2020/12/23 08:02:26;;;;;;;0.70;0.40;;;;;;;;;;5086606;28;20111;-71
2020/12/23 08:04:52;;;;;;;0.98;0.75;;;;;;;;;;5086606;28;20042;-72
2020/12/23 08:07:24;;;;;;;0.75;0.40;;;;;;;;;;5086739;28;20036;-72
2020/12/23 08:09:51;;;;;;;0.57;0.57;;;;;;;;;;5086591;28;20031;-70
2020/12/23 08:12:18;;;;;;;0.25;0.20;;;;;;;;;;5087860;28;20209;-70
2020/12/23 08:14:44;;;;;;;1.88;0.32;;;;;;;;;;5087993;28;20162;-73
2020/12/23 08:17:11;;;;;;;1.15;0.82;;;;;;;;;;5088685;28;20046;-68
2020/12/23 08:19:37;;;;;;;0.35;0.35;;;;;;;;;;5092943;28;20267;-68
2020/12/23 08:22:10;;;;;;;0.47;0.47;;;;;;;;;;5094380;28;20024;-68
2020/12/23 08:24:36;;;;;;;0.15;0.15;;;;;;;;;;5087528;28;20496;-68
2020/12/23 08:27:02;;;;;;;0.20;0.20;;;;;;;;;;5087869;28;20039;-68
2020/12/23 08:29:29;;;;;;;0.95;0.20;;;;;;;;;;5090484;28;20131;-68
2020/12/23 08:31:56;;;;;;;0.73;0.50;;;;;;;;;;5090307;28;20107;-68
2020/12/23 08:34:24;;;;;;;0.73;0.35;;;;;;;;;;5089281;28;20458;-68
2020/12/23 08:36:53;;;;;;;1.58;0.57;;;;;;;;;;5075648;28;20025;-68
2020/12/23 08:39:23;;;;;;;1.00;0.47;;;;;;;;;;5077055;28;20041;-68
2020/12/23 08:41:49;;;;;;;0.80;0.40;;;;;;;;;;5090006;28;20150;-68
2020/12/23 08:44:20;;;;;;;0.57;0.30;;;;;;;;;;5090198;28;20378;-68
2020/12/23 08:46:46;;;;;;;1.10;0.50;;;;;;;;;;5089701;28;20028;-68
2020/12/23 08:49:14;;;;;;;0.50;0.30;;;;;;;;;;5090298;28;20044;-68
2020/12/23 08:51:40;;;;;;;0.75;0.20;;;;;;;;;;5089985;28;20028;-68
2020/12/23 08:54:15;;;;;;;1.10;0.50;;;;;;;;;;5090086;28;20028;-68
2020/12/23 08:56:48;;;;;;;0.35;0.32;;;;;;;;;;5090067;28;20024;-68
2020/12/23 08:59:15;;;;;;;1.25;0.68;;;;;;;;;;5090473;28;20440;-68
2020/12/23 09:01:43;;;;;;;0.32;0.30;;;;;;;;;;5088287;28;20504;-68
2020/12/23 09:04:13;;;;;;;0.98;0.40;;;;;;;;;;5088517;28;20028;-68
2020/12/23 09:06:40;;;;;;;0.45;0.40;;;;;;;;;;5088693;28;20048;-68
2020/12/23 09:09:14;;;;;;;0.70;0.47;;;;;;;;;;5089460;28;20083;-69
2020/12/23 09:11:43;;;;;;;1.25;0.68;;;;;;;;;;5089513;28;20500;-70
2020/12/23 09:14:15;;;;;;;0.50;0.50;;;;;;;;;;5089078;28;20081;-69
2020/12/23 09:17:01;;;;;;;0.63;0.50;;;;;;;;;;5089082;28;20035;-68
2020/12/23 09:19:45;;;;;;;0.65;0.50;;;;;;;;;;5089724;28;20524;-72
2020/12/23 09:22:12;;;;;;;0.90;0.77;;;;;;;;;;5089953;28;20039;-69
2020/12/23 09:24:38;;;;;;;1.42;0.82;;;;;;;;;;5089659;28;20470;-69
2020/12/23 09:27:18;;;;;;;0.88;0.55;;;;;;;;;;5089171;28;21075;-69
2020/12/23 09:29:44;;;;;;;0.60;0.57;;;;;;;;;;5088514;28;20516;-68
2020/12/23 09:32:10;;;;;;;0.60;0.60;;;;;;;;;;5096415;28;20023;-68
2020/12/23 09:34:37;;;;;;;2.70;0.88;;;;;;;;;;5109308;28;20040;-68
2020/12/23 09:37:03;;;;;;;0.63;0.57;;;;;;;;;;5101914;28;20078;-68
2020/12/23 09:39:29;;;;;;;0.47;0.30;;;;;;;;;;5089685;28;20523;-70
2020/12/23 09:42:02;;;;;;;0.50;0.40;;;;;;;;;;5088784;28;20421;-68
2020/12/23 09:44:28;;;;;;;0.45;0.45;;;;;;;;;;5089044;28;20033;-68
2020/12/23 09:46:54;;;;;;;1.70;0.50;;;;;;;;;;5088580;28;20111;-68
2020/12/23 09:49:21;;;;;;;0.90;0.50;;;;;;;;;;5089602;28;20089;-68
2020/12/23 09:51:47;;;;;;;0.90;0.70;;;;;;;;;;5090979;28;20020;-68
2020/12/23 09:54:14;;;;;;;1.30;0.80;;;;;;;;;;5088558;28;20031;-70
2020/12/23 09:56:46;;;;;;;0.73;0.52;;;;;;;;;;5088482;28;20019;-69
2020/12/23 09:59:12;;;;;;;1.45;0.88;;;;;;;;;;5089101;28;20107;-69
2020/12/23 10:01:38;;;;;;;1.20;0.68;;;;;;;;;;5088800;28;20035;-69
2020/12/23 10:04:04;;;;;;;1.23;0.80;;;;;;;;;;5088719;28;20542;-69
2020/12/23 10:06:30;;;;;;;2.28;1.45;;;;;;;;;;5088197;28;20032;-69
2020/12/23 10:08:56;;;;;;;1.05;0.90;;;;;;;;;;5077484;28;20054;-69
2020/12/23 10:11:22;;;;;;;2.97;1.00;;;;;;;;;;5073318;28;20027;-69
2020/12/23 10:13:48;;;;;;;1.02;0.93;;;;;;;;;;5087297;28;20057;-69
2020/12/23 10:16:14;;;;;;;1.75;1.35;;;;;;;;;;5089810;28;20020;-69
2020/12/23 10:18:40;;;;;;;0.77;0.65;;;;;;;;;;5108784;28;20027;-69
2020/12/23 10:21:06;;;;;;;2.28;0.93;;;;;;;;;;5108810;28;20051;-69
2020/12/23 10:23:33;;;;;;;1.48;0.88;;;;;;;;;;5109017;28;20020;-69
2020/12/23 10:25:59;;;;;;;0.95;0.75;;;;;;;;;;5097094;28;20036;-69
2020/12/23 10:28:25;;;;;;;0.63;0.60;;;;;;;;;;5083658;28;20097;-69
2020/12/23 10:30:51;;;;;;;1.95;0.82;;;;;;;;;;5068080;28;20107;-69
2020/12/23 10:33:17;;;;;;;2.10;1.00;;;;;;;;;;5068548;28;20268;-69
2020/12/23 10:35:43;;;;;;;1.70;1.60;;;;;;;;;;5067698;28;20032;-69
2020/12/23 10:38:09;;;;;;;2.22;1.48;;;;;;;;;;5082696;28;20320;-70
2020/12/23 10:40:35;;;;;;;2.30;1.42;;;;;;;;;;5083389;28;20044;-68
2020/12/23 10:43:02;;;;;;;2.08;1.48;;;;;;;;;;5083859;28;20090;-68
2020/12/23 10:45:28;;;;;;;2.28;1.33;;;;;;;;;;5088121;28;20444;-68
2020/12/23 10:47:54;;;;;;;2.42;1.58;;;;;;;;;;5087734;28;20041;-68
2020/12/23 10:50:20;;;;;;;1.60;1.20;;;;;;;;;;5088831;28;20160;-68
2020/12/23 10:52:46;;;;;;;4.00;1.30;;;;;;;;;;5087377;28;20028;-69
2020/12/23 10:55:12;;;;;;;1.05;0.95;;;;;;;;;;5088749;28;20038;-68
2020/12/23 10:57:39;;;;;;;0.70;0.70;;;;;;;;;;5086357;28;20031;-69
2020/12/23 11:00:05;;;;;;;2.22;0.85;;;;;;;;;;5078337;28;20097;-69
2020/12/23 11:02:32;;;;;;;1.63;1.48;;;;;;;;;;5088676;28;20210;-69
2020/12/23 11:04:58;;;;;;;7.60;1.83;;;;;;;;;;5067307;28;20119;-71
2020/12/23 11:07:24;;;;;;;2.42;2.13;;;;;;;;;;5074019;28;20052;-71
2020/12/23 11:09:50;;;;;;;7.05;0.90;;;;;;;;;;5075786;28;20033;-72
2020/12/23 11:12:16;;;;;;;2.13;1.35;;;;;;;;;;5068894;28;20024;-70
2020/12/23 11:14:44;;;;;;;1.45;1.33;;;;;;;;;;5070974;28;20116;-70
2020/12/23 11:17:10;;;;;;;4.90;2.10;;;;;;;;;;5109139;28;20089;-72
2020/12/23 11:19:36;;;;;;;2.53;1.27;;;;;;;;;;5096222;28;20455;-71
2020/12/23 11:22:02;;;;;;;7.95;2.20;;;;;;;;;;5086433;28;20043;-73
2020/12/23 11:24:29;;;;;;;1.00;0.95;;;;;;;;;;5075971;28;20032;-72
2020/12/23 11:26:55;;;;;;;2.33;1.45;;;;;;;;;;5068639;28;20111;-71
2020/12/23 11:29:21;;;;;;;1.83;1.42;;;;;;;;;;5072108;28;20060;-71
2020/12/23 11:31:50;;;;;;;1.92;1.63;;;;;;;;;;5072650;28;20073;-69
2020/12/23 11:34:17;;;;;;;1.13;0.77;;;;;;;;;;5092517;28;20042;-69
2020/12/23 11:36:43;;;;;;;2.15;1.13;;;;;;;;;;5088122;28;20029;-69
2020/12/23 11:39:09;;;;;;;3.60;1.10;;;;;;;;;;5072677;28;20036;-69
2020/12/23 11:41:35;;;;;;;0.98;0.88;;;;;;;;;;5072778;28;20047;-69
2020/12/23 11:44:01;;;;;;;1.10;1.08;;;;;;;;;;5071780;28;20111;-69
2020/12/23 11:46:29;;;;;;;1.88;1.40;;;;;;;;;;5072783;28;20029;-69
2020/12/23 11:48:56;;;;;;;0.98;0.82;;;;;;;;;;5071472;28;20045;-69
2020/12/23 11:51:22;;;;;;;1.45;0.90;;;;;;;;;;5072893;28;20111;-69
2020/12/23 11:53:48;;;;;;;0.82;0.70;;;;;;;;;;5072115;28;20506;-69
2020/12/23 11:56:14;;;;;;;1.05;0.90;;;;;;;;;;5072896;28;20043;-69
2020/12/23 11:58:40;;;;;;;1.25;1.05;;;;;;;;;;5071859;28;20055;-69
2020/12/23 12:01:07;;;;;;;0.93;0.57;;;;;;;;;;5079253;28;20028;-69
2020/12/23 12:03:33;;;;;;;2.25;1.40;;;;;;;;;;5092400;28;20371;-69
2020/12/23 12:05:59;;;;;;;1.13;0.95;;;;;;;;;;5091733;28;20493;-69
2020/12/23 12:08:25;;;;;;;1.88;0.93;;;;;;;;;;5093284;28;20063;-69
2020/12/23 12:10:51;;;;;;;1.55;0.70;;;;;;;;;;5091862;28;20370;-69
2020/12/23 12:13:17;;;;;;;1.35;0.60;;;;;;;;;;5092331;28;20093;-69
2020/12/23 12:15:43;;;;;;;1.27;0.57;;;;;;;;;;5091586;28;20050;-69
2020/12/23 12:18:09;;;;;;;1.13;1.08;;;;;;;;;;5092279;28;20035;-69
2020/12/23 12:20:35;;;;;;;0.80;0.80;;;;;;;;;;5092329;28;20127;-69
2020/12/23 12:23:01;;;;;;;0.45;0.40;;;;;;;;;;5091494;28;20032;-69
2020/12/23 12:25:27;;;;;;;0.63;0.63;;;;;;;;;;5092135;28;20024;-69
2020/12/23 12:27:53;;;;;;;1.50;0.85;;;;;;;;;;5091223;28;20036;-69
2020/12/23 12:30:21;;;;;;;2.38;1.02;;;;;;;;;;5084144;28;20025;-70
2020/12/23 12:32:47;;;;;;;1.40;0.85;;;;;;;;;;5070676;28;20090;-71
2020/12/23 12:35:13;;;;;;;2.30;1.23;;;;;;;;;;5085610;28;20107;-69
2020/12/23 12:37:39;;;;;;;2.47;1.98;;;;;;;;;;5101701;28;20412;-69
2020/12/23 12:40:05;;;;;;;0.75;0.75;;;;;;;;;;5098194;28;20461;-69
2020/12/23 12:42:31;;;;;;;3.47;0.90;;;;;;;;;;5091926;28;20031;-69
2020/12/23 12:44:57;;;;;;;3.05;0.70;;;;;;;;;;5091194;28;20042;-69
2020/12/23 12:47:23;;;;;;;1.38;1.27;;;;;;;;;;5096425;28;20027;-69
2020/12/23 12:49:49;;;;;;;0.77;0.68;;;;;;;;;;5111599;28;20027;-70
2020/12/23 12:52:15;;;;;;;0.85;0.65;;;;;;;;;;5099017;28;20020;-70
2020/12/23 12:54:41;;;;;;;0.43;0.43;;;;;;;;;;5091128;28;20032;-70
2020/12/23 12:57:08;;;;;;;1.08;0.98;;;;;;;;;;5091959;28;20032;-68
2020/12/23 12:59:34;;;;;;;1.33;1.05;;;;;;;;;;5091648;28;20028;-67
2020/12/23 13:02:00;;;;;;;0.50;0.50;;;;;;;;;;5087308;28;20047;-67
2020/12/23 13:04:27;;;;;;;1.90;1.05;;;;;;;;;;5085518;28;20032;-68
2020/12/23 13:06:53;;;;;;;2.45;0.50;;;;;;;;;;5089548;28;20341;-68
2020/12/23 13:09:19;;;;;;;1.85;0.93;;;;;;;;;;5088639;28;20028;-68
2020/12/23 13:11:45;;;;;;;0.88;0.43;;;;;;;;;;5089773;28;20031;-69
2020/12/23 13:14:11;;;;;;;0.95;0.65;;;;;;;;;;5090477;28;20078;-69
2020/12/23 13:16:37;;;;;;;0.93;0.50;;;;;;;;;;5090323;28;20036;-69
2020/12/23 13:19:03;;;;;;;2.05;0.80;;;;;;;;;;5089733;28;20023;-67
2020/12/23 13:21:30;;;;;;;1.02;0.70;;;;;;;;;;5091279;28;20067;-67
2020/12/23 13:23:56;;;;;;;1.75;0.90;;;;;;;;;;5096425;28;20111;-67
2020/12/23 13:26:22;;;;;;;0.63;0.45;;;;;;;;;;5109768;28;20051;-67
2020/12/23 13:28:50;;;;;;;1.45;0.70;;;;;;;;;;5089409;28;20131;-67
2020/12/23 13:31:26;;;;;;;0.70;0.52;;;;;;;;;;5094204;28;20038;-67
2020/12/23 13:33:58;;;;;;;0.88;0.60;;;;;;;;;;5108602;28;20035;-68
2020/12/23 13:36:24;;;;;;;0.82;0.50;;;;;;;;;;5103244;28;20051;-69
2020/12/23 13:38:50;;;;;;;0.77;0.75;;;;;;;;;;5106645;28;20031;-69
2020/12/23 13:41:16;;;;;;;3.03;0.98;;;;;;;;;;5091091;28;20059;-69
2020/12/23 13:43:43;;;;;;;2.58;0.70;;;;;;;;;;5089360;28;20100;-68
2020/12/23 13:46:12;;;;;;;0.70;0.60;;;;;;;;;;5090780;28;20059;-69
2020/12/23 13:48:38;;;;;;;0.98;0.57;;;;;;;;;;5090464;28;20115;-68
2020/12/23 13:51:04;;;;;;;1.20;0.77;;;;;;;;;;5087969;28;20028;-68
2020/12/23 13:53:30;;;;;;;0.47;0.47;;;;;;;;;;5089758;28;20480;-68
2020/12/23 13:55:56;;;;;;;1.30;1.10;;;;;;;;;;5089059;28;20024;-67
2020/12/23 13:58:23;;;;;;;2.85;1.73;;;;;;;;;;5089876;28;20077;-67
2020/12/23 14:00:49;;;;;;;3.70;0.57;;;;;;;;;;5088717;28;20432;-67
2020/12/23 14:03:15;;;;;;;0.82;0.60;;;;;;;;;;5089580;28;20100;-67
2020/12/23 14:05:41;;;;;;;1.92;0.75;;;;;;;;;;5087425;28;20474;-67
2020/12/23 14:08:07;;;;;;;0.93;0.90;;;;;;;;;;5089930;28;20093;-67
2020/12/23 14:10:34;;;;;;;0.88;0.60;;;;;;;;;;5107997;28;20023;-67
2020/12/23 14:13:00;;;;;;;0.40;0.40;;;;;;;;;;5109158;28;20032;-66
2020/12/23 14:15:26;;;;;;;1.45;1.15;;;;;;;;;;5108874;28;20470;-67
2020/12/23 14:17:52;;;;;;;0.68;0.40;;;;;;;;;;5094125;28;20082;-68
2020/12/23 14:20:18;;;;;;;1.00;0.68;;;;;;;;;;5089941;28;20024;-68
2020/12/23 14:22:46;;;;;;;0.68;0.50;;;;;;;;;;5088437;28;20058;-68
2020/12/23 14:25:13;;;;;;;1.05;0.93;;;;;;;;;;5089776;28;20027;-68
2020/12/23 14:27:39;;;;;;;1.45;0.95;;;;;;;;;;5089273;28;20375;-68
2020/12/23 14:30:05;;;;;;;16.30;1.75;;;;;;;;;;5085357;28;20032;-68
2020/12/23 14:32:32;;;;;;;0.98;0.57;;;;;;;;;;5086887;28;20099;-69
2020/12/23 14:34:58;;;;;;;1.13;0.65;;;;;;;;;;5088580;28;20410;-69
2020/12/23 14:37:24;;;;;;;2.30;0.47;;;;;;;;;;5089716;28;20056;-68
2020/12/23 14:39:50;;;;;;;1.75;0.95;;;;;;;;;;5087042;28;20537;-68
2020/12/23 14:42:19;;;;;;;1.05;0.82;;;;;;;;;;5083614;28;20020;-68